Morrinhos, Brazil
Current Conditions -  °F | °C
As of 2:00 PM on Wednesday 26 Nov 2014 (Local Time) from SBFZ Reporting Station
Few Clouds Few Clouds  
Wind Chill: 86°   Ceiling: Unl
Heat Index: 87°   Visibility: 6mi
Dew Point: 64°   Wind: 21mph
Humidity: 48%   Direction: 100°E
Pressure: 29.83"   Gusts: NA
Location:  3.23°S, 40.12°W
Report Text: SBFZ 261700Z 10018KT 9999 FEW030 30/18 Q1010
Loading
Personal Weather Stations






























Interactive Weather Map New forecast layout! Learn more

10-Day Weather Forecast

Advertisements
Track Severe Weather on mobile